Sign in

Advertising

Info

Aviation weather - KDAB

METAR KDAB 010353Z 23006KT 10SM CLR 18/17 A3009 RMK AO2 SLP187 T01830167

TAF KDAB 312347Z 0100/0124 16006KT P6SM SCT080 BKN250 FM011000 27005KT P6SM BKN250 FM011400 27009KT P6SM SCT025 BKN250 FM012100 VRB06KT P6SM SCT050

ADDS Experimental. Do not use for flight-related decisions.

Javascript required. Ce site nécessite javascript